sensor_id;sensor_type;location;lat;lon;timestamp;temperature;humidity
25668;DHT22;18003;-33.830;151.202;2023-04-24T00:02:28;20.00;99.90
25668;DHT22;18003;-33.830;151.202;2023-04-24T00:04:59;20.00;99.90
25668;DHT22;18003;-33.830;151.202;2023-04-24T00:07:31;20.00;99.90
25668;DHT22;18003;-33.830;151.202;2023-04-24T00:10:02;20.00;99.90
25668;DHT22;18003;-33.830;151.202;2023-04-24T00:12:33;19.90;99.90
25668;DHT22;18003;-33.830;151.202;2023-04-24T00:15:03;19.90;99.90
25668;DHT22;18003;-33.830;151.202;2023-04-24T00:17:33;19.90;99.90
25668;DHT22;18003;-33.830;151.202;2023-04-24T00:20:03;19.90;99.90
25668;DHT22;18003;-33.830;151.202;2023-04-24T00:22:35;19.80;99.90
25668;DHT22;18003;-33.830;151.202;2023-04-24T00:25:05;19.80;99.90
25668;DHT22;18003;-33.830;151.202;2023-04-24T00:27:35;19.80;99.90
25668;DHT22;18003;-33.830;151.202;2023-04-24T00:30:07;20.00;99.90
25668;DHT22;18003;-33.830;151.202;2023-04-24T00:32:37;19.90;99.90
25668;DHT22;18003;-33.830;151.202;2023-04-24T00:35:08;20.00;99.90
25668;DHT22;18003;-33.830;151.202;2023-04-24T00:37:39;20.00;99.90
25668;DHT22;18003;-33.830;151.202;2023-04-24T00:40:09;20.00;99.90
25668;DHT22;18003;-33.830;151.202;2023-04-24T00:42:40;20.00;99.90
25668;DHT22;18003;-33.830;151.202;2023-04-24T00:45:11;20.00;99.90
25668;DHT22;18003;-33.830;151.202;2023-04-24T00:47:42;20.00;99.90
25668;DHT22;18003;-33.830;151.202;2023-04-24T00:50:12;20.00;99.90
25668;DHT22;18003;-33.830;151.202;2023-04-24T00:52:43;20.00;99.90
25668;DHT22;18003;-33.830;151.202;2023-04-24T00:55:13;20.00;99.90
25668;DHT22;18003;-33.830;151.202;2023-04-24T00:57:43;20.00;99.90
25668;DHT22;18003;-33.830;151.202;2023-04-24T01:00:15;20.10;99.90
25668;DHT22;18003;-33.830;151.202;2023-04-24T01:02:45;20.10;99.90
25668;DHT22;18003;-33.830;151.202;2023-04-24T01:05:15;20.10;99.90
25668;DHT22;18003;-33.830;151.202;2023-04-24T01:07:46;20.10;99.90
25668;DHT22;18003;-33.830;151.202;2023-04-24T01:10:17;20.10;99.90
25668;DHT22;18003;-33.830;151.202;2023-04-24T01:12:49;20.10;99.90
25668;DHT22;18003;-33.830;151.202;2023-04-24T01:15:19;20.10;99.90
25668;DHT22;18003;-33.830;151.202;2023-04-24T01:17:49;20.10;99.90
25668;DHT22;18003;-33.830;151.202;2023-04-24T01:20:20;20.10;99.90
25668;DHT22;18003;-33.830;151.202;2023-04-24T01:22:50;20.10;99.90
25668;DHT22;18003;-33.830;151.202;2023-04-24T01:25:24;20.10;99.90
25668;DHT22;18003;-33.830;151.202;2023-04-24T01:27:52;20.10;99.90
25668;DHT22;18003;-33.830;151.202;2023-04-24T01:30:22;20.10;99.90
25668;DHT22;18003;-33.830;151.202;2023-04-24T01:32:52;20.10;99.90
25668;DHT22;18003;-33.830;151.202;2023-04-24T01:35:22;20.10;99.90
25668;DHT22;18003;-33.830;151.202;2023-04-24T01:37:52;20.10;99.90
25668;DHT22;18003;-33.830;151.202;2023-04-24T01:40:22;20.20;99.90
25668;DHT22;18003;-33.830;151.202;2023-04-24T01:42:52;20.20;99.90
25668;DHT22;18003;-33.830;151.202;2023-04-24T01:45:22;20.10;99.90
25668;DHT22;18003;-33.830;151.202;2023-04-24T01:47:53;20.10;99.90
25668;DHT22;18003;-33.830;151.202;2023-04-24T01:50:23;20.20;99.90
25668;DHT22;18003;-33.830;151.202;2023-04-24T01:52:53;20.20;99.90
25668;DHT22;18003;-33.830;151.202;2023-04-24T01:55:23;20.20;99.90
25668;DHT22;18003;-33.830;151.202;2023-04-24T01:57:54;20.20;99.90
25668;DHT22;18003;-33.830;151.202;2023-04-24T02:00:23;20.20;99.90
25668;DHT22;18003;-33.830;151.202;2023-04-24T02:02:53;20.10;99.90
25668;DHT22;18003;-33.830;151.202;2023-04-24T02:05:23;20.20;99.90
25668;DHT22;18003;-33.830;151.202;2023-04-24T02:07:53;20.20;99.90
25668;DHT22;18003;-33.830;151.202;2023-04-24T02:10:23;20.10;99.90
25668;DHT22;18003;-33.830;151.202;2023-04-24T02:12:53;20.10;99.90
25668;DHT22;18003;-33.830;151.202;2023-04-24T02:15:24;20.10;99.90
25668;DHT22;18003;-33.830;151.202;2023-04-24T02:17:54;19.90;99.90
25668;DHT22;18003;-33.830;151.202;2023-04-24T02:20:28;19.90;99.90
25668;DHT22;18003;-33.830;151.202;2023-04-24T02:22:58;19.90;99.90
25668;DHT22;18003;-33.830;151.202;2023-04-24T02:25:29;19.90;99.90
25668;DHT22;18003;-33.830;151.202;2023-04-24T02:27:59;19.90;99.90
25668;DHT22;18003;-33.830;151.202;2023-04-24T02:30:32;19.90;99.90
25668;DHT22;18003;-33.830;151.202;2023-04-24T02:33:02;19.90;99.90
25668;DHT22;18003;-33.830;151.202;2023-04-24T02:35:32;19.90;99.90
25668;DHT22;18003;-33.830;151.202;2023-04-24T02:38:05;19.90;99.90
25668;DHT22;18003;-33.830;151.202;2023-04-24T02:40:35;19.90;99.90
25668;DHT22;18003;-33.830;151.202;2023-04-24T02:43:05;19.90;99.90
25668;DHT22;18003;-33.830;151.202;2023-04-24T02:45:35;19.90;99.90
25668;DHT22;18003;-33.830;151.202;2023-04-24T02:48:06;19.90;99.90
25668;DHT22;18003;-33.830;151.202;2023-04-24T02:50:36;19.90;99.90
25668;DHT22;18003;-33.830;151.202;2023-04-24T02:53:06;19.90;99.90
25668;DHT22;18003;-33.830;151.202;2023-04-24T02:55:36;19.90;99.90
25668;DHT22;18003;-33.830;151.202;2023-04-24T02:58:06;20.00;99.90
25668;DHT22;18003;-33.830;151.202;2023-04-24T03:00:36;20.00;99.90
25668;DHT22;18003;-33.830;151.202;2023-04-24T03:03:06;19.90;99.90
25668;DHT22;18003;-33.830;151.202;2023-04-24T03:05:36;20.00;99.90
25668;DHT22;18003;-33.830;151.202;2023-04-24T03:08:06;19.90;99.90
25668;DHT22;18003;-33.830;151.202;2023-04-24T03:10:36;20.00;99.90
25668;DHT22;18003;-33.830;151.202;2023-04-24T03:13:06;19.90;99.90
25668;DHT22;18003;-33.830;151.202;2023-04-24T03:15:36;19.90;99.90
25668;DHT22;18003;-33.830;151.202;2023-04-24T03:18:07;19.90;99.90
25668;DHT22;18003;-33.830;151.202;2023-04-24T03:20:37;19.90;99.90
25668;DHT22;18003;-33.830;151.202;2023-04-24T03:23:07;19.90;99.90
25668;DHT22;18003;-33.830;151.202;2023-04-24T03:25:37;19.90;99.90
25668;DHT22;18003;-33.830;151.202;2023-04-24T03:28:06;19.90;99.90
25668;DHT22;18003;-33.830;151.202;2023-04-24T03:30:37;19.90;99.90
25668;DHT22;18003;-33.830;151.202;2023-04-24T03:33:07;19.90;99.90
25668;DHT22;18003;-33.830;151.202;2023-04-24T03:35:37;19.90;99.90
25668;DHT22;18003;-33.830;151.202;2023-04-24T03:38:07;19.90;99.90
25668;DHT22;18003;-33.830;151.202;2023-04-24T03:40:37;19.90;99.90
25668;DHT22;18003;-33.830;151.202;2023-04-24T03:43:07;19.90;99.90
25668;DHT22;18003;-33.830;151.202;2023-04-24T03:45:37;19.90;99.90
25668;DHT22;18003;-33.830;151.202;2023-04-24T03:48:09;20.00;99.90
25668;DHT22;18003;-33.830;151.202;2023-04-24T03:50:39;19.90;99.90
25668;DHT22;18003;-33.830;151.202;2023-04-24T03:53:08;19.90;99.90
25668;DHT22;18003;-33.830;151.202;2023-04-24T03:55:38;20.00;99.90
25668;DHT22;18003;-33.830;151.202;2023-04-24T03:58:08;20.00;99.90
25668;DHT22;18003;-33.830;151.202;2023-04-24T04:00:40;20.00;99.90
25668;DHT22;18003;-33.830;151.202;2023-04-24T04:03:10;20.00;99.90
25668;DHT22;18003;-33.830;151.202;2023-04-24T04:05:41;20.00;99.90
25668;DHT22;18003;-33.830;151.202;2023-04-24T04:08:11;20.00;99.90
25668;DHT22;18003;-33.830;151.202;2023-04-24T04:10:42;20.00;99.90
25668;DHT22;18003;-33.830;151.202;2023-04-24T04:13:12;20.00;99.90
25668;DHT22;18003;-33.830;151.202;2023-04-24T04:15:42;20.00;99.90
25668;DHT22;18003;-33.830;151.202;2023-04-24T04:18:12;20.00;99.90
25668;DHT22;18003;-33.830;151.202;2023-04-24T04:20:43;20.00;99.90
25668;DHT22;18003;-33.830;151.202;2023-04-24T04:23:13;20.00;99.90
25668;DHT22;18003;-33.830;151.202;2023-04-24T04:25:43;20.00;99.90
25668;DHT22;18003;-33.830;151.202;2023-04-24T04:28:13;20.00;99.90
25668;DHT22;18003;-33.830;151.202;2023-04-24T04:30:43;20.00;99.90
25668;DHT22;18003;-33.830;151.202;2023-04-24T04:33:13;20.00;99.90
25668;DHT22;18003;-33.830;151.202;2023-04-24T04:35:43;20.00;99.90
25668;DHT22;18003;-33.830;151.202;2023-04-24T04:38:12;20.10;99.90
25668;DHT22;18003;-33.830;151.202;2023-04-24T04:40:43;20.00;99.90
25668;DHT22;18003;-33.830;151.202;2023-04-24T04:43:12;20.00;99.90
25668;DHT22;18003;-33.830;151.202;2023-04-24T04:45:44;20.10;99.90
25668;DHT22;18003;-33.830;151.202;2023-04-24T04:48:14;20.00;99.90
25668;DHT22;18003;-33.830;151.202;2023-04-24T04:50:45;20.00;99.90
25668;DHT22;18003;-33.830;151.202;2023-04-24T04:53:15;20.00;99.90
25668;DHT22;18003;-33.830;151.202;2023-04-24T04:55:45;20.00;99.90
25668;DHT22;18003;-33.830;151.202;2023-04-24T04:58:16;20.10;99.90
25668;DHT22;18003;-33.830;151.202;2023-04-24T05:00:47;20.00;99.90
25668;DHT22;18003;-33.830;151.202;2023-04-24T05:03:17;20.00;99.90
25668;DHT22;18003;-33.830;151.202;2023-04-24T05:05:48;20.10;99.90
25668;DHT22;18003;-33.830;151.202;2023-04-24T05:08:18;20.00;99.90
25668;DHT22;18003;-33.830;151.202;2023-04-24T05:10:49;20.10;99.90
25668;DHT22;18003;-33.830;151.202;2023-04-24T05:13:19;20.10;99.90
25668;DHT22;18003;-33.830;151.202;2023-04-24T05:15:49;20.00;99.90
25668;DHT22;18003;-33.830;151.202;2023-04-24T05:18:19;20.00;99.90
25668;DHT22;18003;-33.830;151.202;2023-04-24T05:20:49;20.00;99.90
25668;DHT22;18003;-33.830;151.202;2023-04-24T05:23:20;20.00;99.90
25668;DHT22;18003;-33.830;151.202;2023-04-24T05:25:50;20.10;99.90
25668;DHT22;18003;-33.830;151.202;2023-04-24T05:28:21;20.00;99.90
25668;DHT22;18003;-33.830;151.202;2023-04-24T05:30:51;20.00;99.90
25668;DHT22;18003;-33.830;151.202;2023-04-24T05:33:21;20.10;99.90
25668;DHT22;18003;-33.830;151.202;2023-04-24T05:36:04;20.10;99.90
25668;DHT22;18003;-33.830;151.202;2023-04-24T05:38:32;20.00;99.90
25668;DHT22;18003;-33.830;151.202;2023-04-24T05:41:02;20.00;99.90
25668;DHT22;18003;-33.830;151.202;2023-04-24T05:43:37;20.10;99.90
25668;DHT22;18003;-33.830;151.202;2023-04-24T05:46:03;20.10;99.90
25668;DHT22;18003;-33.830;151.202;2023-04-24T05:48:33;20.10;99.90
25668;DHT22;18003;-33.830;151.202;2023-04-24T05:51:04;20.00;99.90
25668;DHT22;18003;-33.830;151.202;2023-04-24T05:53:34;20.00;99.90
25668;DHT22;18003;-33.830;151.202;2023-04-24T05:56:04;20.00;99.90
25668;DHT22;18003;-33.830;151.202;2023-04-24T05:58:34;20.00;99.90
25668;DHT22;18003;-33.830;151.202;2023-04-24T06:01:05;20.00;99.90
25668;DHT22;18003;-33.830;151.202;2023-04-24T06:03:35;20.00;99.90
25668;DHT22;18003;-33.830;151.202;2023-04-24T06:06:07;20.00;99.90
25668;DHT22;18003;-33.830;151.202;2023-04-24T06:08:37;20.00;99.90
25668;DHT22;18003;-33.830;151.202;2023-04-24T06:11:07;20.00;99.90
25668;DHT22;18003;-33.830;151.202;2023-04-24T06:13:37;20.00;99.90
25668;DHT22;18003;-33.830;151.202;2023-04-24T06:16:07;20.00;99.90
25668;DHT22;18003;-33.830;151.202;2023-04-24T06:18:37;19.90;99.90
25668;DHT22;18003;-33.830;151.202;2023-04-24T06:21:07;20.00;99.90
25668;DHT22;18003;-33.830;151.202;2023-04-24T06:23:37;19.90;99.90
25668;DHT22;18003;-33.830;151.202;2023-04-24T06:26:08;20.00;99.90
25668;DHT22;18003;-33.830;151.202;2023-04-24T06:28:38;20.20;99.90
25668;DHT22;18003;-33.830;151.202;2023-04-24T06:31:08;20.00;99.90
25668;DHT22;18003;-33.830;151.202;2023-04-24T06:33:38;20.00;99.90
25668;DHT22;18003;-33.830;151.202;2023-04-24T06:36:08;20.00;99.90
25668;DHT22;18003;-33.830;151.202;2023-04-24T06:38:39;20.00;99.90
25668;DHT22;18003;-33.830;151.202;2023-04-24T06:41:09;20.00;99.90
25668;DHT22;18003;-33.830;151.202;2023-04-24T06:43:39;19.90;99.90
25668;DHT22;18003;-33.830;151.202;2023-04-24T06:46:09;19.90;99.90
25668;DHT22;18003;-33.830;151.202;2023-04-24T06:48:40;19.90;99.90
25668;DHT22;18003;-33.830;151.202;2023-04-24T06:51:10;19.90;99.90
25668;DHT22;18003;-33.830;151.202;2023-04-24T06:53:41;19.90;99.90
25668;DHT22;18003;-33.830;151.202;2023-04-24T06:56:11;19.90;99.90
25668;DHT22;18003;-33.830;151.202;2023-04-24T06:58:41;19.90;99.90
25668;DHT22;18003;-33.830;151.202;2023-04-24T07:01:15;19.90;99.90
25668;DHT22;18003;-33.830;151.202;2023-04-24T07:09:26;20.10;99.90
25668;DHT22;18003;-33.830;151.202;2023-04-24T07:11:56;19.90;99.90
25668;DHT22;18003;-33.830;151.202;2023-04-24T07:14:33;19.80;99.90
25668;DHT22;18003;-33.830;151.202;2023-04-24T07:17:06;19.60;99.90
25668;DHT22;18003;-33.830;151.202;2023-04-24T07:19:51;19.80;99.90
25668;DHT22;18003;-33.830;151.202;2023-04-24T07:22:24;19.90;99.90
25668;DHT22;18003;-33.830;151.202;2023-04-24T07:28:18;19.80;99.90
25668;DHT22;18003;-33.830;151.202;2023-04-24T07:31:15;20.00;99.90
25668;DHT22;18003;-33.830;151.202;2023-04-24T07:34:00;19.80;99.90
25668;DHT22;18003;-33.830;151.202;2023-04-24T07:36:52;19.80;99.90
25668;DHT22;18003;-33.830;151.202;2023-04-24T07:39:34;19.80;99.90
25668;DHT22;18003;-33.830;151.202;2023-04-24T07:42:07;19.80;99.90
25668;DHT22;18003;-33.830;151.202;2023-04-24T07:44:41;19.40;99.90
25668;DHT22;18003;-33.830;151.202;2023-04-24T07:47:09;19.80;99.90
25668;DHT22;18003;-33.830;151.202;2023-04-24T07:49:42;19.80;99.90
25668;DHT22;18003;-33.830;151.202;2023-04-24T07:52:21;19.80;99.90
25668;DHT22;18003;-33.830;151.202;2023-04-24T08:01:04;19.90;99.90
25668;DHT22;18003;-33.830;151.202;2023-04-24T08:13:36;19.80;99.90
25668;DHT22;18003;-33.830;151.202;2023-04-24T08:16:03;19.80;99.90
25668;DHT22;18003;-33.830;151.202;2023-04-24T08:18:33;20.00;99.90
25668;DHT22;18003;-33.830;151.202;2023-04-24T08:21:04;18.70;99.90
25668;DHT22;18003;-33.830;151.202;2023-04-24T08:23:34;19.70;99.90
25668;DHT22;18003;-33.830;151.202;2023-04-24T08:26:04;19.70;99.90
25668;DHT22;18003;-33.830;151.202;2023-04-24T08:28:35;19.70;99.90
25668;DHT22;18003;-33.830;151.202;2023-04-24T08:31:06;19.80;99.90
25668;DHT22;18003;-33.830;151.202;2023-04-24T08:33:46;19.70;99.90
25668;DHT22;18003;-33.830;151.202;2023-04-24T08:36:12;19.70;99.90
25668;DHT22;18003;-33.830;151.202;2023-04-24T08:38:43;19.70;99.90
25668;DHT22;18003;-33.830;151.202;2023-04-24T08:41:15;19.70;99.90
25668;DHT22;18003;-33.830;151.202;2023-04-24T08:43:46;19.60;99.90
25668;DHT22;18003;-33.830;151.202;2023-04-24T08:46:16;19.60;99.90
25668;DHT22;18003;-33.830;151.202;2023-04-24T08:48:47;19.60;99.90
25668;DHT22;18003;-33.830;151.202;2023-04-24T08:51:19;19.60;99.90
25668;DHT22;18003;-33.830;151.202;2023-04-24T08:53:49;19.60;99.90
25668;DHT22;18003;-33.830;151.202;2023-04-24T08:56:21;19.60;99.90
25668;DHT22;18003;-33.830;151.202;2023-04-24T08:58:52;19.60;99.90
25668;DHT22;18003;-33.830;151.202;2023-04-24T09:01:23;19.60;99.90
25668;DHT22;18003;-33.830;151.202;2023-04-24T09:03:55;19.60;99.90
25668;DHT22;18003;-33.830;151.202;2023-04-24T09:06:26;19.60;99.90
25668;DHT22;18003;-33.830;151.202;2023-04-24T09:09:04;19.60;99.90
25668;DHT22;18003;-33.830;151.202;2023-04-24T09:11:34;19.60;99.90
25668;DHT22;18003;-33.830;151.202;2023-04-24T09:14:04;19.60;99.90
25668;DHT22;18003;-33.830;151.202;2023-04-24T09:16:35;19.60;99.90
25668;DHT22;18003;-33.830;151.202;2023-04-24T09:19:05;19.60;99.90
25668;DHT22;18003;-33.830;151.202;2023-04-24T09:21:36;19.60;99.90
25668;DHT22;18003;-33.830;151.202;2023-04-24T09:24:07;19.60;99.90
25668;DHT22;18003;-33.830;151.202;2023-04-24T09:26:38;19.60;99.90
25668;DHT22;18003;-33.830;151.202;2023-04-24T09:29:13;19.60;99.90
25668;DHT22;18003;-33.830;151.202;2023-04-24T09:31:39;19.60;99.90
25668;DHT22;18003;-33.830;151.202;2023-04-24T09:34:10;19.60;99.90
25668;DHT22;18003;-33.830;151.202;2023-04-24T09:36:44;19.60;99.90
25668;DHT22;18003;-33.830;151.202;2023-04-24T09:39:15;19.60;99.90
25668;DHT22;18003;-33.830;151.202;2023-04-24T09:41:52;19.60;99.90
25668;DHT22;18003;-33.830;151.202;2023-04-24T09:44:26;19.60;99.90
25668;DHT22;18003;-33.830;151.202;2023-04-24T09:47:02;19.60;99.90
25668;DHT22;18003;-33.830;151.202;2023-04-24T09:49:29;19.60;99.90
25668;DHT22;18003;-33.830;151.202;2023-04-24T09:52:09;19.60;99.90
25668;DHT22;18003;-33.830;151.202;2023-04-24T09:54:40;19.60;99.90
25668;DHT22;18003;-33.830;151.202;2023-04-24T09:57:10;19.60;99.90
25668;DHT22;18003;-33.830;151.202;2023-04-24T09:59:47;19.60;99.90
25668;DHT22;18003;-33.830;151.202;2023-04-24T10:02:20;19.60;99.90
25668;DHT22;18003;-33.830;151.202;2023-04-24T10:04:56;19.50;99.90
25668;DHT22;18003;-33.830;151.202;2023-04-24T10:07:27;19.50;99.90
25668;DHT22;18003;-33.830;151.202;2023-04-24T10:09:57;19.50;99.90
25668;DHT22;18003;-33.830;151.202;2023-04-24T10:12:28;19.50;99.90
25668;DHT22;18003;-33.830;151.202;2023-04-24T10:15:03;19.50;99.90
25668;DHT22;18003;-33.830;151.202;2023-04-24T10:17:35;19.50;99.90
25668;DHT22;18003;-33.830;151.202;2023-04-24T10:20:06;19.50;99.90
25668;DHT22;18003;-33.830;151.202;2023-04-24T10:22:37;19.50;99.90
25668;DHT22;18003;-33.830;151.202;2023-04-24T10:25:07;19.50;99.90
25668;DHT22;18003;-33.830;151.202;2023-04-24T10:27:39;19.50;99.90
25668;DHT22;18003;-33.830;151.202;2023-04-24T10:30:10;19.50;99.90
25668;DHT22;18003;-33.830;151.202;2023-04-24T10:32:39;19.50;99.90
25668;DHT22;18003;-33.830;151.202;2023-04-24T10:35:14;19.50;99.90
25668;DHT22;18003;-33.830;151.202;2023-04-24T10:37:54;19.50;99.90
25668;DHT22;18003;-33.830;151.202;2023-04-24T10:40:29;19.50;99.90
25668;DHT22;18003;-33.830;151.202;2023-04-24T10:42:54;19.50;99.90
25668;DHT22;18003;-33.830;151.202;2023-04-24T10:45:25;19.50;99.90
25668;DHT22;18003;-33.830;151.202;2023-04-24T10:48:03;19.50;99.90
25668;DHT22;18003;-33.830;151.202;2023-04-24T10:50:47;19.60;99.90
25668;DHT22;18003;-33.830;151.202;2023-04-24T10:53:21;19.50;99.90
25668;DHT22;18003;-33.830;151.202;2023-04-24T10:56:08;19.50;99.90
25668;DHT22;18003;-33.830;151.202;2023-04-24T10:58:40;19.50;99.90
25668;DHT22;18003;-33.830;151.202;2023-04-24T11:01:26;19.50;99.90
25668;DHT22;18003;-33.830;151.202;2023-04-24T11:04:00;19.50;99.90
25668;DHT22;18003;-33.830;151.202;2023-04-24T11:06:32;19.50;99.90
25668;DHT22;18003;-33.830;151.202;2023-04-24T11:09:07;19.50;99.90
25668;DHT22;18003;-33.830;151.202;2023-04-24T11:11:37;19.50;99.90
25668;DHT22;18003;-33.830;151.202;2023-04-24T11:14:09;19.50;99.90
25668;DHT22;18003;-33.830;151.202;2023-04-24T11:16:52;19.50;99.90
25668;DHT22;18003;-33.830;151.202;2023-04-24T11:19:24;19.50;99.90
25668;DHT22;18003;-33.830;151.202;2023-04-24T11:22:01;19.50;99.90
25668;DHT22;18003;-33.830;151.202;2023-04-24T11:27:13;19.50;99.90
25668;DHT22;18003;-33.830;151.202;2023-04-24T11:30:00;19.50;99.90
25668;DHT22;18003;-33.830;151.202;2023-04-24T11:35:13;19.50;99.90
25668;DHT22;18003;-33.830;151.202;2023-04-24T11:37:42;19.40;99.90
25668;DHT22;18003;-33.830;151.202;2023-04-24T11:40:14;19.40;99.90
25668;DHT22;18003;-33.830;151.202;2023-04-24T11:42:50;19.40;99.90
25668;DHT22;18003;-33.830;151.202;2023-04-24T11:45:18;19.40;99.90
25668;DHT22;18003;-33.830;151.202;2023-04-24T11:47:48;19.40;99.90
25668;DHT22;18003;-33.830;151.202;2023-04-24T11:50:20;19.30;99.90
25668;DHT22;18003;-33.830;151.202;2023-04-24T11:52:51;19.40;99.90
25668;DHT22;18003;-33.830;151.202;2023-04-24T11:57:58;19.40;99.90
25668;DHT22;18003;-33.830;151.202;2023-04-24T12:00:32;19.40;99.90
25668;DHT22;18003;-33.830;151.202;2023-04-24T12:03:08;19.30;99.90
25668;DHT22;18003;-33.830;151.202;2023-04-24T12:05:39;19.30;99.90
25668;DHT22;18003;-33.830;151.202;2023-04-24T12:08:09;19.40;99.90
25668;DHT22;18003;-33.830;151.202;2023-04-24T12:10:39;19.30;99.90
25668;DHT22;18003;-33.830;151.202;2023-04-24T12:13:10;19.40;99.90
25668;DHT22;18003;-33.830;151.202;2023-04-24T12:15:41;19.40;99.90
25668;DHT22;18003;-33.830;151.202;2023-04-24T12:18:12;19.30;99.90
25668;DHT22;18003;-33.830;151.202;2023-04-24T12:20:42;19.30;99.90
25668;DHT22;18003;-33.830;151.202;2023-04-24T12:23:13;19.30;99.90
25668;DHT22;18003;-33.830;151.202;2023-04-24T12:28:15;19.30;99.90
25668;DHT22;18003;-33.830;151.202;2023-04-24T12:30:49;19.30;99.90
25668;DHT22;18003;-33.830;151.202;2023-04-24T12:33:19;19.30;99.90
25668;DHT22;18003;-33.830;151.202;2023-04-24T12:35:53;19.30;99.90
25668;DHT22;18003;-33.830;151.202;2023-04-24T12:38:26;19.30;99.90
25668;DHT22;18003;-33.830;151.202;2023-04-24T12:41:10;19.30;99.90
25668;DHT22;18003;-33.830;151.202;2023-04-24T12:43:53;19.20;99.90
25668;DHT22;18003;-33.830;151.202;2023-04-24T12:46:24;19.20;99.90
25668;DHT22;18003;-33.830;151.202;2023-04-24T12:48:58;19.20;99.90
25668;DHT22;18003;-33.830;151.202;2023-04-24T12:51:25;19.20;99.90
25668;DHT22;18003;-33.830;151.202;2023-04-24T12:53:55;19.20;99.90
25668;DHT22;18003;-33.830;151.202;2023-04-24T12:56:26;19.20;99.90
25668;DHT22;18003;-33.830;151.202;2023-04-24T12:58:57;19.20;99.90
25668;DHT22;18003;-33.830;151.202;2023-04-24T13:01:27;19.20;99.90
25668;DHT22;18003;-33.830;151.202;2023-04-24T13:03:57;19.20;99.90
25668;DHT22;18003;-33.830;151.202;2023-04-24T13:06:28;19.20;99.90
25668;DHT22;18003;-33.830;151.202;2023-04-24T13:08:57;19.20;99.90
25668;DHT22;18003;-33.830;151.202;2023-04-24T13:11:27;19.30;99.90
25668;DHT22;18003;-33.830;151.202;2023-04-24T13:13:58;19.30;99.90
25668;DHT22;18003;-33.830;151.202;2023-04-24T13:16:28;19.20;99.90
25668;DHT22;18003;-33.830;151.202;2023-04-24T13:19:03;19.20;99.90
25668;DHT22;18003;-33.830;151.202;2023-04-24T13:21:33;19.20;99.90
25668;DHT22;18003;-33.830;151.202;2023-04-24T13:24:04;19.20;99.90
25668;DHT22;18003;-33.830;151.202;2023-04-24T13:26:38;19.20;99.90
25668;DHT22;18003;-33.830;151.202;2023-04-24T13:29:06;19.20;99.90
25668;DHT22;18003;-33.830;151.202;2023-04-24T13:31:36;19.20;99.90
25668;DHT22;18003;-33.830;151.202;2023-04-24T13:34:05;19.20;99.90
25668;DHT22;18003;-33.830;151.202;2023-04-24T13:36:35;19.20;99.90
25668;DHT22;18003;-33.830;151.202;2023-04-24T13:39:07;19.20;99.90
25668;DHT22;18003;-33.830;151.202;2023-04-24T13:41:45;19.20;99.90
25668;DHT22;18003;-33.830;151.202;2023-04-24T13:44:13;19.10;99.90
25668;DHT22;18003;-33.830;151.202;2023-04-24T13:46:43;19.20;99.90
25668;DHT22;18003;-33.830;151.202;2023-04-24T13:49:15;19.20;99.90
25668;DHT22;18003;-33.830;151.202;2023-04-24T13:51:45;19.10;99.90
25668;DHT22;18003;-33.830;151.202;2023-04-24T13:54:18;19.10;99.90
25668;DHT22;18003;-33.830;151.202;2023-04-24T13:56:48;19.20;99.90
25668;DHT22;18003;-33.830;151.202;2023-04-24T13:59:19;19.10;99.90
25668;DHT22;18003;-33.830;151.202;2023-04-24T14:01:50;19.20;99.90
25668;DHT22;18003;-33.830;151.202;2023-04-24T14:04:20;19.10;99.90
25668;DHT22;18003;-33.830;151.202;2023-04-24T14:06:50;19.10;99.90
25668;DHT22;18003;-33.830;151.202;2023-04-24T14:09:20;19.10;99.90
25668;DHT22;18003;-33.830;151.202;2023-04-24T14:11:54;19.10;99.90
25668;DHT22;18003;-33.830;151.202;2023-04-24T14:14:24;19.10;99.90
25668;DHT22;18003;-33.830;151.202;2023-04-24T14:16:54;19.10;99.90
25668;DHT22;18003;-33.830;151.202;2023-04-24T14:19:24;19.10;99.90
25668;DHT22;18003;-33.830;151.202;2023-04-24T14:21:54;19.10;99.90
25668;DHT22;18003;-33.830;151.202;2023-04-24T14:24:31;19.10;99.90
25668;DHT22;18003;-33.830;151.202;2023-04-24T14:27:01;19.10;99.90
25668;DHT22;18003;-33.830;151.202;2023-04-24T14:29:32;19.10;99.90
25668;DHT22;18003;-33.830;151.202;2023-04-24T14:32:02;19.10;99.90
25668;DHT22;18003;-33.830;151.202;2023-04-24T14:34:32;19.00;99.90
25668;DHT22;18003;-33.830;151.202;2023-04-24T14:37:02;19.00;99.90
25668;DHT22;18003;-33.830;151.202;2023-04-24T14:39:36;19.00;99.90
25668;DHT22;18003;-33.830;151.202;2023-04-24T14:42:06;19.00;99.90
25668;DHT22;18003;-33.830;151.202;2023-04-24T14:44:36;19.00;99.90
25668;DHT22;18003;-33.830;151.202;2023-04-24T14:47:06;19.00;99.90
25668;DHT22;18003;-33.830;151.202;2023-04-24T14:49:36;19.00;99.90
25668;DHT22;18003;-33.830;151.202;2023-04-24T14:52:06;19.10;99.90
25668;DHT22;18003;-33.830;151.202;2023-04-24T14:54:36;19.00;99.90
25668;DHT22;18003;-33.830;151.202;2023-04-24T14:57:06;19.10;99.90
25668;DHT22;18003;-33.830;151.202;2023-04-24T15:02:18;19.00;99.90
25668;DHT22;18003;-33.830;151.202;2023-04-24T15:04:48;19.10;99.90
25668;DHT22;18003;-33.830;151.202;2023-04-24T15:07:18;19.10;99.90
25668;DHT22;18003;-33.830;151.202;2023-04-24T15:09:48;19.00;99.90
25668;DHT22;18003;-33.830;151.202;2023-04-24T15:12:18;19.00;99.90
25668;DHT22;18003;-33.830;151.202;2023-04-24T15:14:48;19.00;99.90
25668;DHT22;18003;-33.830;151.202;2023-04-24T15:17:18;19.00;99.90
25668;DHT22;18003;-33.830;151.202;2023-04-24T15:19:48;19.00;99.90
25668;DHT22;18003;-33.830;151.202;2023-04-24T15:22:18;19.00;99.90
25668;DHT22;18003;-33.830;151.202;2023-04-24T15:24:48;19.00;99.90
25668;DHT22;18003;-33.830;151.202;2023-04-24T15:27:18;19.10;99.90
25668;DHT22;18003;-33.830;151.202;2023-04-24T15:29:48;19.10;99.90
25668;DHT22;18003;-33.830;151.202;2023-04-24T15:32:18;19.10;99.90
25668;DHT22;18003;-33.830;151.202;2023-04-24T15:34:48;19.10;99.90
25668;DHT22;18003;-33.830;151.202;2023-04-24T15:37:19;19.10;99.90
25668;DHT22;18003;-33.830;151.202;2023-04-24T15:39:48;19.10;99.90
25668;DHT22;18003;-33.830;151.202;2023-04-24T15:42:18;19.10;99.90
25668;DHT22;18003;-33.830;151.202;2023-04-24T15:44:49;19.10;99.90
25668;DHT22;18003;-33.830;151.202;2023-04-24T15:47:20;19.10;99.90
25668;DHT22;18003;-33.830;151.202;2023-04-24T15:49:50;19.10;99.90
25668;DHT22;18003;-33.830;151.202;2023-04-24T15:52:21;19.10;99.90